EmailTwitter


Observations de surface / Québec / EGVN

Régions: Québec | Canada | États-Unis | Europe | France | UK | Elsewhere
Station
Affichage
Infos & localisation pour EGVN | Aide pour décoder les METARs

Observations prises le 2017-05-26 à 00H50 UTC à BRIZE NORTON RA, UK (EGVN)

Température: 14.0 Celsius

Point de rosée: 11.0 Celsius

Humidité relative: 82%

Vents: Nord-est à 9 km/h ou 5 noeuds.

Pression au niveau moyen de la mer: 102.00 kilopascals.

Observation METAR:

EGVN 260050Z 05005KT CAVOK 14/11 Q1020 BLU NOSIG=